sensor_id;sensor_type;location;lat;lon;timestamp;P1;durP1;ratioP1;P2;durP2;ratioP2
69030;SDS011;56083;48.774;8.942;2022-08-06T00:00:46;4.63;;;1.48;;
69030;SDS011;56083;48.774;8.942;2022-08-06T00:03:11;4.38;;;1.30;;
69030;SDS011;56083;48.774;8.942;2022-08-06T00:05:37;3.90;;;1.50;;
69030;SDS011;56083;48.774;8.942;2022-08-06T00:08:03;3.33;;;1.40;;
69030;SDS011;56083;48.774;8.942;2022-08-06T00:10:28;4.35;;;1.40;;
69030;SDS011;56083;48.774;8.942;2022-08-06T00:12:54;3.25;;;1.40;;
69030;SDS011;56083;48.774;8.942;2022-08-06T00:15:20;3.60;;;1.38;;
69030;SDS011;56083;48.774;8.942;2022-08-06T00:17:46;2.55;;;1.27;;
69030;SDS011;56083;48.774;8.942;2022-08-06T00:20:13;5.68;;;1.50;;
69030;SDS011;56083;48.774;8.942;2022-08-06T00:22:40;4.07;;;1.30;;
69030;SDS011;56083;48.774;8.942;2022-08-06T00:25:06;2.33;;;1.50;;
69030;SDS011;56083;48.774;8.942;2022-08-06T00:27:33;3.03;;;1.30;;
69030;SDS011;56083;48.774;8.942;2022-08-06T00:29:59;3.30;;;1.30;;
69030;SDS011;56083;48.774;8.942;2022-08-06T00:32:25;4.43;;;1.58;;
69030;SDS011;56083;48.774;8.942;2022-08-06T00:34:50;3.13;;;1.60;;
69030;SDS011;56083;48.774;8.942;2022-08-06T00:37:16;3.92;;;1.40;;
69030;SDS011;56083;48.774;8.942;2022-08-06T00:39:42;2.80;;;1.30;;
69030;SDS011;56083;48.774;8.942;2022-08-06T00:42:08;4.10;;;1.35;;
69030;SDS011;56083;48.774;8.942;2022-08-06T00:44:33;4.57;;;1.48;;
69030;SDS011;56083;48.774;8.942;2022-08-06T00:46:59;3.75;;;1.20;;
69030;SDS011;56083;48.774;8.942;2022-08-06T00:49:25;5.13;;;1.30;;
69030;SDS011;56083;48.774;8.942;2022-08-06T00:51:51;2.80;;;1.30;;
69030;SDS011;56083;48.774;8.942;2022-08-06T00:54:17;2.10;;;1.08;;
69030;SDS011;56083;48.774;8.942;2022-08-06T00:56:43;4.35;;;1.25;;
69030;SDS011;56083;48.774;8.942;2022-08-06T00:59:09;4.75;;;1.20;;
69030;SDS011;56083;48.774;8.942;2022-08-06T01:01:35;3.78;;;1.35;;
69030;SDS011;56083;48.774;8.942;2022-08-06T01:04:00;4.10;;;1.23;;
69030;SDS011;56083;48.774;8.942;2022-08-06T01:06:26;3.53;;;1.10;;
69030;SDS011;56083;48.774;8.942;2022-08-06T01:08:52;3.42;;;1.13;;
69030;SDS011;56083;48.774;8.942;2022-08-06T01:11:17;4.15;;;1.48;;
69030;SDS011;56083;48.774;8.942;2022-08-06T01:13:43;5.80;;;1.15;;
69030;SDS011;56083;48.774;8.942;2022-08-06T01:16:14;2.90;;;1.15;;
69030;SDS011;56083;48.774;8.942;2022-08-06T01:18:57;2.75;;;1.20;;
69030;SDS011;56083;48.774;8.942;2022-08-06T01:21:49;4.28;;;1.25;;
69030;SDS011;56083;48.774;8.942;2022-08-06T01:29:42;3.13;;;1.30;;
69030;SDS011;56083;48.774;8.942;2022-08-06T01:32:15;3.75;;;1.25;;
69030;SDS011;56083;48.774;8.942;2022-08-06T01:34:56;3.92;;;1.20;;
69030;SDS011;56083;48.774;8.942;2022-08-06T01:38:10;4.13;;;1.25;;
69030;SDS011;56083;48.774;8.942;2022-08-06T01:40:21;7.28;;;1.40;;
69030;SDS011;56083;48.774;8.942;2022-08-06T01:42:51;5.20;;;1.20;;
69030;SDS011;56083;48.774;8.942;2022-08-06T01:45:20;5.45;;;1.10;;
69030;SDS011;56083;48.774;8.942;2022-08-06T01:47:50;3.33;;;1.10;;
69030;SDS011;56083;48.774;8.942;2022-08-06T01:50:20;5.07;;;1.48;;
69030;SDS011;56083;48.774;8.942;2022-08-06T01:52:55;3.15;;;1.20;;
69030;SDS011;56083;48.774;8.942;2022-08-06T01:55:22;3.50;;;1.30;;
69030;SDS011;56083;48.774;8.942;2022-08-06T01:57:52;5.03;;;1.33;;
69030;SDS011;56083;48.774;8.942;2022-08-06T02:00:22;4.82;;;1.40;;
69030;SDS011;56083;48.774;8.942;2022-08-06T02:02:48;4.00;;;1.30;;
69030;SDS011;56083;48.774;8.942;2022-08-06T02:05:15;3.20;;;1.23;;
69030;SDS011;56083;48.774;8.942;2022-08-06T02:07:45;3.00;;;1.27;;
69030;SDS011;56083;48.774;8.942;2022-08-06T02:10:15;3.40;;;1.30;;
69030;SDS011;56083;48.774;8.942;2022-08-06T02:12:42;3.50;;;1.38;;
69030;SDS011;56083;48.774;8.942;2022-08-06T02:15:12;4.97;;;1.42;;
69030;SDS011;56083;48.774;8.942;2022-08-06T02:17:47;5.95;;;1.30;;
69030;SDS011;56083;48.774;8.942;2022-08-06T02:20:16;2.60;;;1.30;;
69030;SDS011;56083;48.774;8.942;2022-08-06T02:22:45;5.72;;;1.48;;
69030;SDS011;56083;48.774;8.942;2022-08-06T02:25:12;2.28;;;1.20;;
69030;SDS011;56083;48.774;8.942;2022-08-06T02:27:40;5.00;;;1.33;;
69030;SDS011;56083;48.774;8.942;2022-08-06T02:30:09;5.10;;;1.35;;
69030;SDS011;56083;48.774;8.942;2022-08-06T02:32:36;4.03;;;1.40;;
69030;SDS011;56083;48.774;8.942;2022-08-06T02:35:02;4.28;;;1.45;;
69030;SDS011;56083;48.774;8.942;2022-08-06T02:37:29;3.50;;;1.40;;
69030;SDS011;56083;48.774;8.942;2022-08-06T02:43:01;5.70;;;1.42;;
69030;SDS011;56083;48.774;8.942;2022-08-06T02:45:40;5.65;;;1.55;;
69030;SDS011;56083;48.774;8.942;2022-08-06T02:49:09;4.43;;;1.45;;
69030;SDS011;56083;48.774;8.942;2022-08-06T02:51:36;4.93;;;1.58;;
69030;SDS011;56083;48.774;8.942;2022-08-06T02:54:07;3.70;;;1.30;;
69030;SDS011;56083;48.774;8.942;2022-08-06T02:56:40;4.47;;;1.42;;
69030;SDS011;56083;48.774;8.942;2022-08-06T02:59:09;6.47;;;1.35;;
69030;SDS011;56083;48.774;8.942;2022-08-06T03:01:38;3.70;;;1.20;;
69030;SDS011;56083;48.774;8.942;2022-08-06T03:04:13;7.32;;;1.35;;
69030;SDS011;56083;48.774;8.942;2022-08-06T03:06:41;7.85;;;1.52;;
69030;SDS011;56083;48.774;8.942;2022-08-06T03:09:10;5.18;;;1.55;;
69030;SDS011;56083;48.774;8.942;2022-08-06T03:11:38;3.20;;;1.48;;
69030;SDS011;56083;48.774;8.942;2022-08-06T03:14:05;4.88;;;1.55;;
69030;SDS011;56083;48.774;8.942;2022-08-06T03:16:34;3.63;;;1.42;;
69030;SDS011;56083;48.774;8.942;2022-08-06T03:19:01;5.15;;;1.50;;
69030;SDS011;56083;48.774;8.942;2022-08-06T03:21:28;3.55;;;1.27;;
69030;SDS011;56083;48.774;8.942;2022-08-06T03:23:54;3.38;;;1.23;;
69030;SDS011;56083;48.774;8.942;2022-08-06T03:26:23;2.45;;;1.40;;
69030;SDS011;56083;48.774;8.942;2022-08-06T03:28:50;6.07;;;1.25;;
69030;SDS011;56083;48.774;8.942;2022-08-06T03:31:20;4.22;;;1.50;;
69030;SDS011;56083;48.774;8.942;2022-08-06T03:33:48;5.13;;;1.42;;
69030;SDS011;56083;48.774;8.942;2022-08-06T03:36:15;6.50;;;1.55;;
69030;SDS011;56083;48.774;8.942;2022-08-06T03:38:44;3.80;;;1.48;;
69030;SDS011;56083;48.774;8.942;2022-08-06T03:41:15;3.65;;;1.48;;
69030;SDS011;56083;48.774;8.942;2022-08-06T03:43:42;3.25;;;1.20;;
69030;SDS011;56083;48.774;8.942;2022-08-06T03:46:08;3.58;;;1.48;;
69030;SDS011;56083;48.774;8.942;2022-08-06T03:48:37;3.67;;;1.38;;
69030;SDS011;56083;48.774;8.942;2022-08-06T03:51:10;2.40;;;1.30;;
69030;SDS011;56083;48.774;8.942;2022-08-06T03:53:39;3.13;;;1.30;;
69030;SDS011;56083;48.774;8.942;2022-08-06T03:56:06;2.78;;;1.25;;
69030;SDS011;56083;48.774;8.942;2022-08-06T03:58:35;4.03;;;1.70;;
69030;SDS011;56083;48.774;8.942;2022-08-06T04:01:06;5.30;;;1.65;;
69030;SDS011;56083;48.774;8.942;2022-08-06T04:03:37;4.55;;;1.60;;
69030;SDS011;56083;48.774;8.942;2022-08-06T04:06:03;4.95;;;1.50;;
69030;SDS011;56083;48.774;8.942;2022-08-06T04:08:30;3.00;;;1.25;;
69030;SDS011;56083;48.774;8.942;2022-08-06T04:10:58;6.20;;;1.55;;
69030;SDS011;56083;48.774;8.942;2022-08-06T04:13:25;7.63;;;1.60;;
69030;SDS011;56083;48.774;8.942;2022-08-06T04:15:53;7.80;;;1.75;;
69030;SDS011;56083;48.774;8.942;2022-08-06T04:18:24;7.00;;;1.70;;
69030;SDS011;56083;48.774;8.942;2022-08-06T04:20:54;3.10;;;1.50;;
69030;SDS011;56083;48.774;8.942;2022-08-06T04:23:23;3.03;;;1.50;;
69030;SDS011;56083;48.774;8.942;2022-08-06T04:25:53;5.78;;;1.48;;
69030;SDS011;56083;48.774;8.942;2022-08-06T04:28:21;8.50;;;2.05;;
69030;SDS011;56083;48.774;8.942;2022-08-06T04:30:49;4.30;;;1.42;;
69030;SDS011;56083;48.774;8.942;2022-08-06T04:33:18;4.15;;;1.52;;
69030;SDS011;56083;48.774;8.942;2022-08-06T04:35:46;5.32;;;1.70;;
69030;SDS011;56083;48.774;8.942;2022-08-06T04:38:12;3.45;;;1.50;;
69030;SDS011;56083;48.774;8.942;2022-08-06T04:40:39;3.67;;;1.40;;
69030;SDS011;56083;48.774;8.942;2022-08-06T04:43:09;5.90;;;1.70;;
69030;SDS011;56083;48.774;8.942;2022-08-06T04:45:37;2.75;;;1.60;;
69030;SDS011;56083;48.774;8.942;2022-08-06T04:48:05;6.72;;;1.85;;
69030;SDS011;56083;48.774;8.942;2022-08-06T04:50:33;4.20;;;1.55;;
69030;SDS011;56083;48.774;8.942;2022-08-06T04:53:13;5.28;;;1.85;;
69030;SDS011;56083;48.774;8.942;2022-08-06T04:55:40;4.70;;;1.67;;
69030;SDS011;56083;48.774;8.942;2022-08-06T04:58:07;3.83;;;1.70;;
69030;SDS011;56083;48.774;8.942;2022-08-06T05:00:35;3.50;;;1.38;;
69030;SDS011;56083;48.774;8.942;2022-08-06T05:03:02;5.28;;;1.60;;
69030;SDS011;56083;48.774;8.942;2022-08-06T05:05:29;4.78;;;1.63;;
69030;SDS011;56083;48.774;8.942;2022-08-06T05:07:56;4.82;;;1.88;;
69030;SDS011;56083;48.774;8.942;2022-08-06T05:10:25;5.72;;;1.60;;
69030;SDS011;56083;48.774;8.942;2022-08-06T05:12:55;6.72;;;2.22;;
69030;SDS011;56083;48.774;8.942;2022-08-06T05:15:38;6.60;;;1.73;;
69030;SDS011;56083;48.774;8.942;2022-08-06T05:18:12;3.28;;;1.58;;
69030;SDS011;56083;48.774;8.942;2022-08-06T05:20:41;6.38;;;1.90;;
69030;SDS011;56083;48.774;8.942;2022-08-06T05:23:12;5.78;;;2.00;;
69030;SDS011;56083;48.774;8.942;2022-08-06T05:25:42;5.35;;;1.80;;
69030;SDS011;56083;48.774;8.942;2022-08-06T05:28:08;7.63;;;1.88;;
69030;SDS011;56083;48.774;8.942;2022-08-06T05:30:40;7.80;;;1.85;;
69030;SDS011;56083;48.774;8.942;2022-08-06T05:33:10;5.55;;;1.80;;
69030;SDS011;56083;48.774;8.942;2022-08-06T05:35:36;6.93;;;1.90;;
69030;SDS011;56083;48.774;8.942;2022-08-06T05:38:02;11.68;;;1.95;;
69030;SDS011;56083;48.774;8.942;2022-08-06T05:40:28;4.28;;;1.60;;
69030;SDS011;56083;48.774;8.942;2022-08-06T05:43:03;5.70;;;1.88;;
69030;SDS011;56083;48.774;8.942;2022-08-06T05:45:28;5.15;;;2.00;;
69030;SDS011;56083;48.774;8.942;2022-08-06T05:47:56;5.05;;;1.92;;
69030;SDS011;56083;48.774;8.942;2022-08-06T05:50:26;3.90;;;1.90;;
69030;SDS011;56083;48.774;8.942;2022-08-06T05:53:58;3.72;;;1.63;;
69030;SDS011;56083;48.774;8.942;2022-08-06T05:56:02;8.00;;;2.00;;
69030;SDS011;56083;48.774;8.942;2022-08-06T05:58:40;4.68;;;1.90;;
69030;SDS011;56083;48.774;8.942;2022-08-06T06:01:16;6.43;;;1.98;;
69030;SDS011;56083;48.774;8.942;2022-08-06T06:03:42;3.95;;;1.70;;
69030;SDS011;56083;48.774;8.942;2022-08-06T06:06:09;3.42;;;1.67;;
69030;SDS011;56083;48.774;8.942;2022-08-06T06:08:36;5.80;;;1.50;;
69030;SDS011;56083;48.774;8.942;2022-08-06T06:11:04;6.38;;;2.03;;
69030;SDS011;56083;48.774;8.942;2022-08-06T06:13:32;5.47;;;1.85;;
69030;SDS011;56083;48.774;8.942;2022-08-06T06:16:11;3.75;;;1.88;;
69030;SDS011;56083;48.774;8.942;2022-08-06T06:24:54;4.05;;;1.60;;
69030;SDS011;56083;48.774;8.942;2022-08-06T06:27:37;5.55;;;2.05;;
69030;SDS011;56083;48.774;8.942;2022-08-06T06:30:41;6.60;;;1.80;;
69030;SDS011;56083;48.774;8.942;2022-08-06T06:35:53;4.28;;;1.75;;
69030;SDS011;56083;48.774;8.942;2022-08-06T06:41:34;3.47;;;1.73;;
69030;SDS011;56083;48.774;8.942;2022-08-06T06:44:19;3.58;;;1.70;;
69030;SDS011;56083;48.774;8.942;2022-08-06T06:49:34;6.90;;;1.60;;
69030;SDS011;56083;48.774;8.942;2022-08-06T06:52:13;4.47;;;1.70;;
69030;SDS011;56083;48.774;8.942;2022-08-06T06:54:53;7.25;;;1.67;;
69030;SDS011;56083;48.774;8.942;2022-08-06T06:57:25;3.95;;;1.80;;
69030;SDS011;56083;48.774;8.942;2022-08-06T06:59:57;7.75;;;2.00;;
69030;SDS011;56083;48.774;8.942;2022-08-06T07:02:27;4.10;;;1.60;;
69030;SDS011;56083;48.774;8.942;2022-08-06T07:04:55;3.92;;;1.60;;
69030;SDS011;56083;48.774;8.942;2022-08-06T07:07:21;3.35;;;1.85;;
69030;SDS011;56083;48.774;8.942;2022-08-06T07:09:48;3.80;;;1.65;;
69030;SDS011;56083;48.774;8.942;2022-08-06T07:12:15;4.70;;;1.60;;
69030;SDS011;56083;48.774;8.942;2022-08-06T07:14:44;7.57;;;1.80;;
69030;SDS011;56083;48.774;8.942;2022-08-06T07:17:11;6.30;;;1.70;;
69030;SDS011;56083;48.774;8.942;2022-08-06T07:19:37;7.82;;;1.50;;
69030;SDS011;56083;48.774;8.942;2022-08-06T07:22:03;3.13;;;1.42;;
69030;SDS011;56083;48.774;8.942;2022-08-06T07:24:31;6.05;;;1.50;;
69030;SDS011;56083;48.774;8.942;2022-08-06T07:27:00;7.95;;;1.52;;
69030;SDS011;56083;48.774;8.942;2022-08-06T07:29:27;2.70;;;1.27;;
69030;SDS011;56083;48.774;8.942;2022-08-06T07:31:55;4.88;;;1.63;;
69030;SDS011;56083;48.774;8.942;2022-08-06T07:34:23;5.22;;;1.52;;
69030;SDS011;56083;48.774;8.942;2022-08-06T07:36:51;3.33;;;1.40;;
69030;SDS011;56083;48.774;8.942;2022-08-06T07:39:22;4.15;;;1.33;;
69030;SDS011;56083;48.774;8.942;2022-08-06T07:41:51;5.55;;;1.58;;
69030;SDS011;56083;48.774;8.942;2022-08-06T07:44:19;5.18;;;1.50;;
69030;SDS011;56083;48.774;8.942;2022-08-06T07:46:51;7.63;;;1.80;;
69030;SDS011;56083;48.774;8.942;2022-08-06T07:49:21;4.95;;;1.52;;
69030;SDS011;56083;48.774;8.942;2022-08-06T07:51:50;3.88;;;1.60;;
69030;SDS011;56083;48.774;8.942;2022-08-06T07:54:18;6.80;;;1.80;;
69030;SDS011;56083;48.774;8.942;2022-08-06T07:56:46;6.70;;;1.70;;
69030;SDS011;56083;48.774;8.942;2022-08-06T07:59:12;5.60;;;1.50;;
69030;SDS011;56083;48.774;8.942;2022-08-06T08:01:39;3.47;;;1.50;;
69030;SDS011;56083;48.774;8.942;2022-08-06T08:04:06;5.95;;;1.50;;
69030;SDS011;56083;48.774;8.942;2022-08-06T08:06:52;5.18;;;1.75;;
69030;SDS011;56083;48.774;8.942;2022-08-06T08:09:19;8.27;;;1.70;;
69030;SDS011;56083;48.774;8.942;2022-08-06T08:11:47;5.00;;;1.27;;
69030;SDS011;56083;48.774;8.942;2022-08-06T08:14:15;6.78;;;1.52;;
69030;SDS011;56083;48.774;8.942;2022-08-06T08:16:43;5.20;;;1.88;;
69030;SDS011;56083;48.774;8.942;2022-08-06T08:19:26;2.80;;;1.17;;
69030;SDS011;56083;48.774;8.942;2022-08-06T08:21:56;4.75;;;1.40;;
69030;SDS011;56083;48.774;8.942;2022-08-06T08:24:24;5.05;;;1.42;;
69030;SDS011;56083;48.774;8.942;2022-08-06T08:26:50;6.05;;;1.42;;
69030;SDS011;56083;48.774;8.942;2022-08-06T08:29:16;6.38;;;1.33;;
69030;SDS011;56083;48.774;8.942;2022-08-06T08:31:41;3.58;;;1.40;;
69030;SDS011;56083;48.774;8.942;2022-08-06T08:34:07;4.68;;;1.58;;
69030;SDS011;56083;48.774;8.942;2022-08-06T08:36:33;3.20;;;1.17;;
69030;SDS011;56083;48.774;8.942;2022-08-06T08:38:59;4.68;;;1.40;;
69030;SDS011;56083;48.774;8.942;2022-08-06T08:41:28;4.53;;;1.33;;
69030;SDS011;56083;48.774;8.942;2022-08-06T08:44:00;5.63;;;1.48;;
69030;SDS011;56083;48.774;8.942;2022-08-06T08:46:34;5.57;;;1.30;;
69030;SDS011;56083;48.774;8.942;2022-08-06T08:49:03;3.25;;;1.35;;
69030;SDS011;56083;48.774;8.942;2022-08-06T08:51:34;4.80;;;1.73;;
69030;SDS011;56083;48.774;8.942;2022-08-06T08:54:05;6.97;;;1.83;;
69030;SDS011;56083;48.774;8.942;2022-08-06T08:56:32;6.35;;;1.10;;
69030;SDS011;56083;48.774;8.942;2022-08-06T08:58:59;8.05;;;1.58;;
69030;SDS011;56083;48.774;8.942;2022-08-06T09:01:26;4.90;;;1.20;;
69030;SDS011;56083;48.774;8.942;2022-08-06T09:03:51;4.10;;;1.23;;
69030;SDS011;56083;48.774;8.942;2022-08-06T09:06:17;3.90;;;1.40;;
69030;SDS011;56083;48.774;8.942;2022-08-06T09:08:45;5.38;;;1.35;;
69030;SDS011;56083;48.774;8.942;2022-08-06T09:11:13;5.65;;;1.38;;
69030;SDS011;56083;48.774;8.942;2022-08-06T09:13:39;4.93;;;1.45;;
69030;SDS011;56083;48.774;8.942;2022-08-06T09:16:05;5.07;;;1.42;;
69030;SDS011;56083;48.774;8.942;2022-08-06T09:18:31;6.47;;;1.80;;
69030;SDS011;56083;48.774;8.942;2022-08-06T09:20:58;6.47;;;1.30;;
69030;SDS011;56083;48.774;8.942;2022-08-06T09:23:28;5.90;;;1.98;;
69030;SDS011;56083;48.774;8.942;2022-08-06T09:25:54;3.65;;;1.30;;
69030;SDS011;56083;48.774;8.942;2022-08-06T09:28:37;3.75;;;1.10;;
69030;SDS011;56083;48.774;8.942;2022-08-06T09:31:05;3.55;;;1.30;;
69030;SDS011;56083;48.774;8.942;2022-08-06T09:33:34;1.67;;;1.10;;
69030;SDS011;56083;48.774;8.942;2022-08-06T09:36:05;5.25;;;1.20;;
69030;SDS011;56083;48.774;8.942;2022-08-06T09:38:49;6.07;;;1.42;;
69030;SDS011;56083;48.774;8.942;2022-08-06T09:41:15;6.57;;;1.13;;
69030;SDS011;56083;48.774;8.942;2022-08-06T09:43:43;4.43;;;1.45;;
69030;SDS011;56083;48.774;8.942;2022-08-06T09:46:13;13.35;;;1.40;;
69030;SDS011;56083;48.774;8.942;2022-08-06T09:48:58;6.65;;;1.38;;
69030;SDS011;56083;48.774;8.942;2022-08-06T09:51:25;2.55;;;1.10;;
69030;SDS011;56083;48.774;8.942;2022-08-06T09:53:52;4.60;;;1.35;;
69030;SDS011;56083;48.774;8.942;2022-08-06T09:56:19;8.68;;;1.40;;
69030;SDS011;56083;48.774;8.942;2022-08-06T09:58:45;4.40;;;1.35;;
69030;SDS011;56083;48.774;8.942;2022-08-06T10:01:15;2.28;;;0.90;;
69030;SDS011;56083;48.774;8.942;2022-08-06T10:03:42;4.38;;;1.20;;
69030;SDS011;56083;48.774;8.942;2022-08-06T10:06:10;5.75;;;1.23;;
69030;SDS011;56083;48.774;8.942;2022-08-06T10:08:38;7.60;;;1.00;;
69030;SDS011;56083;48.774;8.942;2022-08-06T10:11:04;3.20;;;1.20;;
69030;SDS011;56083;48.774;8.942;2022-08-06T10:13:31;2.90;;;0.98;;
69030;SDS011;56083;48.774;8.942;2022-08-06T10:15:58;4.97;;;0.98;;
69030;SDS011;56083;48.774;8.942;2022-08-06T10:21:09;3.13;;;0.93;;
69030;SDS011;56083;48.774;8.942;2022-08-06T10:23:36;8.23;;;1.00;;
69030;SDS011;56083;48.774;8.942;2022-08-06T10:26:07;5.57;;;1.27;;
69030;SDS011;56083;48.774;8.942;2022-08-06T10:28:34;2.75;;;1.10;;
69030;SDS011;56083;48.774;8.942;2022-08-06T10:31:03;5.13;;;1.08;;
69030;SDS011;56083;48.774;8.942;2022-08-06T10:33:31;4.03;;;1.20;;
69030;SDS011;56083;48.774;8.942;2022-08-06T10:36:07;4.07;;;1.10;;
69030;SDS011;56083;48.774;8.942;2022-08-06T10:38:37;3.40;;;1.00;;
69030;SDS011;56083;48.774;8.942;2022-08-06T10:41:06;3.22;;;1.05;;
69030;SDS011;56083;48.774;8.942;2022-08-06T10:43:34;3.05;;;1.00;;
69030;SDS011;56083;48.774;8.942;2022-08-06T10:46:11;8.70;;;1.20;;
69030;SDS011;56083;48.774;8.942;2022-08-06T10:48:40;3.78;;;0.82;;
69030;SDS011;56083;48.774;8.942;2022-08-06T10:51:07;3.28;;;0.90;;
69030;SDS011;56083;48.774;8.942;2022-08-06T10:53:35;5.38;;;0.98;;
69030;SDS011;56083;48.774;8.942;2022-08-06T10:56:04;7.78;;;1.20;;
69030;SDS011;56083;48.774;8.942;2022-08-06T10:58:31;2.55;;;0.85;;
69030;SDS011;56083;48.774;8.942;2022-08-06T11:00:59;3.67;;;1.00;;
69030;SDS011;56083;48.774;8.942;2022-08-06T11:05:56;5.68;;;0.90;;
69030;SDS011;56083;48.774;8.942;2022-08-06T11:11:46;4.82;;;0.90;;
69030;SDS011;56083;48.774;8.942;2022-08-06T11:14:32;6.28;;;1.00;;
69030;SDS011;56083;48.774;8.942;2022-08-06T11:17:01;1.63;;;0.70;;
69030;SDS011;56083;48.774;8.942;2022-08-06T11:19:37;6.05;;;1.13;;
69030;SDS011;56083;48.774;8.942;2022-08-06T11:22:06;3.25;;;1.00;;
69030;SDS011;56083;48.774;8.942;2022-08-06T11:24:32;2.10;;;1.00;;
69030;SDS011;56083;48.774;8.942;2022-08-06T11:26:58;4.35;;;1.10;;
69030;SDS011;56083;48.774;8.942;2022-08-06T11:29:24;6.15;;;1.02;;
69030;SDS011;56083;48.774;8.942;2022-08-06T11:31:50;9.32;;;1.55;;
69030;SDS011;56083;48.774;8.942;2022-08-06T11:34:19;2.60;;;0.90;;
69030;SDS011;56083;48.774;8.942;2022-08-06T11:39:16;4.13;;;1.08;;
69030;SDS011;56083;48.774;8.942;2022-08-06T11:41:53;3.05;;;1.00;;
69030;SDS011;56083;48.774;8.942;2022-08-06T11:44:24;5.63;;;1.20;;
69030;SDS011;56083;48.774;8.942;2022-08-06T11:47:16;2.63;;;0.90;;
69030;SDS011;56083;48.774;8.942;2022-08-06T11:49:45;1.77;;;1.05;;
69030;SDS011;56083;48.774;8.942;2022-08-06T11:55:00;6.97;;;1.30;;
69030;SDS011;56083;48.774;8.942;2022-08-06T11:57:29;5.25;;;1.10;;
69030;SDS011;56083;48.774;8.942;2022-08-06T12:05:06;7.05;;;1.40;;
69030;SDS011;56083;48.774;8.942;2022-08-06T12:14:00;3.92;;;1.20;;
69030;SDS011;56083;48.774;8.942;2022-08-06T12:16:27;2.47;;;1.10;;
69030;SDS011;56083;48.774;8.942;2022-08-06T12:18:58;4.67;;;0.90;;
69030;SDS011;56083;48.774;8.942;2022-08-06T12:21:25;5.22;;;1.48;;
69030;SDS011;56083;48.774;8.942;2022-08-06T12:23:51;2.05;;;1.20;;
69030;SDS011;56083;48.774;8.942;2022-08-06T12:26:18;5.15;;;1.17;;
69030;SDS011;56083;48.774;8.942;2022-08-06T12:28:45;2.85;;;1.10;;
69030;SDS011;56083;48.774;8.942;2022-08-06T12:31:11;5.13;;;1.13;;
69030;SDS011;56083;48.774;8.942;2022-08-06T12:33:41;4.63;;;1.40;;
69030;SDS011;56083;48.774;8.942;2022-08-06T12:36:07;3.45;;;1.20;;
69030;SDS011;56083;48.774;8.942;2022-08-06T12:38:33;5.47;;;1.25;;
69030;SDS011;56083;48.774;8.942;2022-08-06T12:41:07;2.85;;;0.95;;
69030;SDS011;56083;48.774;8.942;2022-08-06T12:43:35;4.53;;;1.30;;
69030;SDS011;56083;48.774;8.942;2022-08-06T12:46:02;2.30;;;1.00;;
69030;SDS011;56083;48.774;8.942;2022-08-06T12:48:31;5.18;;;1.10;;
69030;SDS011;56083;48.774;8.942;2022-08-06T12:51:02;5.57;;;1.20;;
69030;SDS011;56083;48.774;8.942;2022-08-06T12:53:28;4.07;;;1.20;;
69030;SDS011;56083;48.774;8.942;2022-08-06T12:55:54;2.95;;;1.00;;
69030;SDS011;56083;48.774;8.942;2022-08-06T12:58:36;3.33;;;1.10;;
69030;SDS011;56083;48.774;8.942;2022-08-06T13:01:04;5.55;;;1.17;;
69030;SDS011;56083;48.774;8.942;2022-08-06T13:03:32;5.47;;;1.20;;
69030;SDS011;56083;48.774;8.942;2022-08-06T13:06:01;3.08;;;1.10;;
69030;SDS011;56083;48.774;8.942;2022-08-06T13:08:30;4.93;;;1.40;;
69030;SDS011;56083;48.774;8.942;2022-08-06T13:10:56;2.35;;;1.00;;
69030;SDS011;56083;48.774;8.942;2022-08-06T13:16:12;4.22;;;1.00;;
69030;SDS011;56083;48.774;8.942;2022-08-06T13:18:39;7.13;;;1.10;;
69030;SDS011;56083;48.774;8.942;2022-08-06T13:21:19;5.00;;;1.05;;
69030;SDS011;56083;48.774;8.942;2022-08-06T13:23:47;2.35;;;1.10;;
69030;SDS011;56083;48.774;8.942;2022-08-06T13:29:03;9.93;;;1.10;;
69030;SDS011;56083;48.774;8.942;2022-08-06T13:31:29;3.70;;;1.10;;
69030;SDS011;56083;48.774;8.942;2022-08-06T13:34:02;2.58;;;1.25;;
69030;SDS011;56083;48.774;8.942;2022-08-06T13:36:32;6.15;;;1.23;;
69030;SDS011;56083;48.774;8.942;2022-08-06T13:39:16;2.97;;;1.08;;
69030;SDS011;56083;48.774;8.942;2022-08-06T13:41:46;7.13;;;1.30;;
69030;SDS011;56083;48.774;8.942;2022-08-06T13:44:27;1.83;;;1.17;;
69030;SDS011;56083;48.774;8.942;2022-08-06T13:46:57;4.15;;;1.20;;
69030;SDS011;56083;48.774;8.942;2022-08-06T13:49:23;4.47;;;1.10;;
69030;SDS011;56083;48.774;8.942;2022-08-06T13:51:49;9.15;;;1.25;;
69030;SDS011;56083;48.774;8.942;2022-08-06T13:54:15;4.50;;;1.10;;
69030;SDS011;56083;48.774;8.942;2022-08-06T13:56:40;5.85;;;1.20;;
69030;SDS011;56083;48.774;8.942;2022-08-06T13:59:06;2.65;;;1.33;;
69030;SDS011;56083;48.774;8.942;2022-08-06T14:01:32;6.90;;;1.45;;
69030;SDS011;56083;48.774;8.942;2022-08-06T14:03:57;4.85;;;1.15;;
69030;SDS011;56083;48.774;8.942;2022-08-06T14:06:23;6.38;;;1.13;;
69030;SDS011;56083;48.774;8.942;2022-08-06T14:08:49;4.45;;;1.10;;
69030;SDS011;56083;48.774;8.942;2022-08-06T14:11:14;6.32;;;1.05;;
69030;SDS011;56083;48.774;8.942;2022-08-06T14:13:40;4.13;;;1.10;;
69030;SDS011;56083;48.774;8.942;2022-08-06T14:16:05;4.43;;;1.13;;
69030;SDS011;56083;48.774;8.942;2022-08-06T14:18:31;5.07;;;1.10;;
69030;SDS011;56083;48.774;8.942;2022-08-06T14:20:57;2.05;;;1.02;;
69030;SDS011;56083;48.774;8.942;2022-08-06T14:23:23;1.95;;;1.10;;
69030;SDS011;56083;48.774;8.942;2022-08-06T14:25:49;6.38;;;1.10;;
69030;SDS011;56083;48.774;8.942;2022-08-06T14:28:15;7.07;;;1.20;;
69030;SDS011;56083;48.774;8.942;2022-08-06T14:30:42;2.90;;;1.10;;
69030;SDS011;56083;48.774;8.942;2022-08-06T14:33:08;3.88;;;1.00;;
69030;SDS011;56083;48.774;8.942;2022-08-06T14:35:34;2.60;;;1.20;;
69030;SDS011;56083;48.774;8.942;2022-08-06T14:38:02;2.03;;;1.00;;
69030;SDS011;56083;48.774;8.942;2022-08-06T14:40:28;4.43;;;1.30;;
69030;SDS011;56083;48.774;8.942;2022-08-06T14:43:13;2.67;;;1.00;;
69030;SDS011;56083;48.774;8.942;2022-08-06T14:45:57;3.55;;;1.00;;
69030;SDS011;56083;48.774;8.942;2022-08-06T14:48:23;1.13;;;0.80;;
69030;SDS011;56083;48.774;8.942;2022-08-06T14:50:49;3.80;;;1.10;;
69030;SDS011;56083;48.774;8.942;2022-08-06T14:53:15;1.65;;;0.90;;
69030;SDS011;56083;48.774;8.942;2022-08-06T14:55:40;4.13;;;1.20;;
69030;SDS011;56083;48.774;8.942;2022-08-06T14:58:06;4.20;;;1.00;;
69030;SDS011;56083;48.774;8.942;2022-08-06T15:00:32;5.57;;;1.10;;
69030;SDS011;56083;48.774;8.942;2022-08-06T15:02:57;5.70;;;0.90;;
69030;SDS011;56083;48.774;8.942;2022-08-06T15:05:23;8.35;;;1.10;;
69030;SDS011;56083;48.774;8.942;2022-08-06T15:07:49;8.15;;;1.20;;
69030;SDS011;56083;48.774;8.942;2022-08-06T15:10:14;5.50;;;1.25;;
69030;SDS011;56083;48.774;8.942;2022-08-06T15:12:40;3.03;;;1.05;;
69030;SDS011;56083;48.774;8.942;2022-08-06T15:15:06;3.30;;;1.02;;
69030;SDS011;56083;48.774;8.942;2022-08-06T15:17:32;2.45;;;0.95;;
69030;SDS011;56083;48.774;8.942;2022-08-06T15:19:58;3.40;;;0.90;;
69030;SDS011;56083;48.774;8.942;2022-08-06T15:22:24;3.47;;;1.02;;
69030;SDS011;56083;48.774;8.942;2022-08-06T15:24:50;1.65;;;1.00;;
69030;SDS011;56083;48.774;8.942;2022-08-06T15:27:15;2.03;;;0.90;;
69030;SDS011;56083;48.774;8.942;2022-08-06T15:29:47;5.40;;;0.90;;
69030;SDS011;56083;48.774;8.942;2022-08-06T15:32:12;5.38;;;1.40;;
69030;SDS011;56083;48.774;8.942;2022-08-06T15:34:38;2.80;;;1.10;;
69030;SDS011;56083;48.774;8.942;2022-08-06T15:37:04;2.53;;;1.00;;
69030;SDS011;56083;48.774;8.942;2022-08-06T15:39:31;3.58;;;1.20;;
69030;SDS011;56083;48.774;8.942;2022-08-06T15:41:58;5.28;;;1.05;;
69030;SDS011;56083;48.774;8.942;2022-08-06T15:44:24;3.28;;;1.20;;
69030;SDS011;56083;48.774;8.942;2022-08-06T15:46:50;2.30;;;0.80;;
69030;SDS011;56083;48.774;8.942;2022-08-06T15:49:15;4.07;;;0.88;;
69030;SDS011;56083;48.774;8.942;2022-08-06T15:51:41;6.18;;;1.00;;
69030;SDS011;56083;48.774;8.942;2022-08-06T15:54:07;3.50;;;0.93;;